createdAt,value
2023-04-21T00:04:41.861Z,9.37
2023-04-21T00:09:34.746Z,9.28
2023-04-21T00:14:27.784Z,9.18
2023-04-21T00:19:21.782Z,9.09
2023-04-21T00:24:14.496Z,9.02
2023-04-21T00:29:07.220Z,8.91
2023-04-21T00:34:00.502Z,8.84
2023-04-21T00:38:53.348Z,8.78
2023-04-21T00:44:05.277Z,8.69
2023-04-21T00:48:58.751Z,8.60
2023-04-21T00:53:52.426Z,8.52
2023-04-21T00:58:46.603Z,8.50
2023-04-21T01:03:40.226Z,8.38
2023-04-21T01:08:33.157Z,8.22
2023-04-21T01:13:25.853Z,8.07
2023-04-21T01:18:19.448Z,7.93
2023-04-21T01:23:14.281Z,7.79
2023-04-21T01:28:06.986Z,7.69
2023-04-21T01:33:00.839Z,7.62
2023-04-21T01:37:53.774Z,7.54
2023-04-21T01:42:46.554Z,7.48
2023-04-21T01:47:39.403Z,7.45
2023-04-21T01:52:32.196Z,7.45
2023-04-21T01:57:25.354Z,7.46
2023-04-21T02:02:18.543Z,7.48
2023-04-21T02:07:11.388Z,7.43
2023-04-21T02:12:06.363Z,7.42
2023-04-21T02:16:59.132Z,7.31
2023-04-21T02:21:51.877Z,7.18
2023-04-21T02:26:47.597Z,7.03
2023-04-21T02:31:54.239Z,6.91
2023-04-21T02:36:50.460Z,6.81
2023-04-21T02:41:45.273Z,6.70
2023-04-21T02:46:41.195Z,6.60
2023-04-21T02:51:33.952Z,6.53
2023-04-21T02:56:26.683Z,6.47
2023-04-21T03:01:19.478Z,6.41
2023-04-21T03:06:12.833Z,6.36
2023-04-21T03:11:05.682Z,6.28
2023-04-21T03:15:58.566Z,6.21
2023-04-21T03:20:51.287Z,6.17
2023-04-21T03:25:44.032Z,6.13
2023-04-21T03:30:36.718Z,6.10
2023-04-21T03:35:30.778Z,6.07
2023-04-21T03:40:24.129Z,6.03
2023-04-21T03:45:19.712Z,6.04
2023-04-21T03:50:13.586Z,6.06
2023-04-21T03:55:09.088Z,6.15
2023-04-21T04:00:01.811Z,6.29
2023-04-21T04:04:54.535Z,6.55
2023-04-21T04:09:47.291Z,6.68
2023-04-21T04:14:40.570Z,6.89
2023-04-21T04:19:33.320Z,7.49
2023-04-21T04:24:26.847Z,7.59
2023-04-21T04:29:20.199Z,7.49
2023-04-21T04:34:13.502Z,7.44
2023-04-21T04:39:08.304Z,7.48
2023-04-21T04:44:04.660Z,7.52
2023-04-21T04:48:57.379Z,7.57
2023-04-21T04:53:50.507Z,7.65
2023-04-21T04:58:43.386Z,7.75
2023-04-21T05:03:36.313Z,7.82
2023-04-21T05:08:29.110Z,7.90
2023-04-21T05:13:21.808Z,8.01
2023-04-21T05:18:14.508Z,8.14
2023-04-21T05:23:07.184Z,8.26
2023-04-21T05:27:59.902Z,8.37
2023-04-21T05:32:52.935Z,8.48
2023-04-21T05:37:45.681Z,8.60
2023-04-21T05:42:38.398Z,8.72
2023-04-21T05:47:31.140Z,8.85
2023-04-21T05:52:23.938Z,8.95
2023-04-21T05:57:18.014Z,9.05
2023-04-21T06:02:10.967Z,9.23
2023-04-21T06:07:08.339Z,9.42
2023-04-21T06:12:01.977Z,9.59
2023-04-21T06:16:54.694Z,10.09
2023-04-21T06:21:47.364Z,10.97
2023-04-21T06:26:40.097Z,11.70
2023-04-21T06:31:32.840Z,11.73
2023-04-21T06:36:25.590Z,11.66
2023-04-21T06:41:19.679Z,11.65
2023-04-21T06:46:12.477Z,13.37
2023-04-21T06:51:05.292Z,16.43
2023-04-21T06:55:57.982Z,19.64
2023-04-21T07:00:51.469Z,22.48
2023-04-21T07:05:44.202Z,24.75
2023-04-21T07:10:36.875Z,25.60
2023-04-21T07:15:29.572Z,26.14
2023-04-21T07:20:22.288Z,25.53
2023-04-21T07:25:14.975Z,27.18
2023-04-21T07:30:08.028Z,29.54
2023-04-21T07:35:02.115Z,31.72
2023-04-21T07:39:54.936Z,32.16
2023-04-21T07:44:48.935Z,31.95
2023-04-21T07:49:42.252Z,32.33
2023-04-21T07:54:34.984Z,30.90
2023-04-21T07:59:27.682Z,31.63
2023-04-21T08:04:20.796Z,32.24
2023-04-21T08:09:13.979Z,33.00
2023-04-21T08:14:07.144Z,31.26
2023-04-21T08:19:00.485Z,28.58
2023-04-21T08:23:53.240Z,28.89
2023-04-21T08:28:48.830Z,29.53
2023-04-21T08:33:49.817Z,29.87
2023-04-21T08:38:51.106Z,28.79
2023-04-21T08:43:43.858Z,27.78
2023-04-21T08:48:37.748Z,27.31
2023-04-21T08:53:30.543Z,27.55
2023-04-21T08:58:24.349Z,27.49
2023-04-21T09:03:26.025Z,27.41
2023-04-21T09:08:19.669Z,26.24
2023-04-21T09:13:13.102Z,26.47
2023-04-21T09:18:11.884Z,26.60
2023-04-21T09:23:08.123Z,27.48
2023-04-21T09:28:04.048Z,27.82
2023-04-21T09:32:59.870Z,27.81
2023-04-21T09:37:52.571Z,27.87
2023-04-21T09:42:45.548Z,27.23
2023-04-21T09:47:43.015Z,27.85
2023-04-21T09:52:35.799Z,28.82
2023-04-21T09:57:30.813Z,30.12
2023-04-21T10:02:26.156Z,31.54
2023-04-21T10:07:18.978Z,32.90
2023-04-21T10:12:12.597Z,33.61
2023-04-21T10:17:06.879Z,34.00
2023-04-21T10:22:00.059Z,34.33
2023-04-21T10:26:55.147Z,34.62
2023-04-21T10:31:48.218Z,34.30
2023-04-21T10:36:47.118Z,34.35
2023-04-21T10:41:40.677Z,34.33
2023-04-21T10:46:35.100Z,34.36
2023-04-21T10:51:32.291Z,34.60
2023-04-21T10:56:25.701Z,33.78
2023-04-21T11:01:19.156Z,33.22
2023-04-21T11:06:19.000Z,33.15
2023-04-21T11:11:11.698Z,32.81
2023-04-21T11:16:08.270Z,32.26
2023-04-21T11:21:13.857Z,31.99
2023-04-21T11:26:06.700Z,31.98
2023-04-21T11:31:00.237Z,31.58
2023-04-21T11:35:57.947Z,30.82
2023-04-21T11:40:51.466Z,29.93
2023-04-21T11:45:44.265Z,28.50
2023-04-21T11:50:39.154Z,27.59
2023-04-21T11:55:31.856Z,26.93
2023-04-21T12:00:24.617Z,25.94
2023-04-21T12:05:17.351Z,25.66
2023-04-21T12:10:18.755Z,25.46
2023-04-21T12:15:12.998Z,25.39
2023-04-21T12:20:07.463Z,25.39
2023-04-21T12:25:00.321Z,25.27
2023-04-21T12:29:53.057Z,25.11
2023-04-21T12:34:45.742Z,24.96
2023-04-21T12:39:38.453Z,24.55
2023-04-21T12:44:31.249Z,24.40
2023-04-21T12:49:24.038Z,24.31
2023-04-21T12:54:16.765Z,24.07
2023-04-21T12:59:10.659Z,23.98
2023-04-21T13:04:03.605Z,23.98
2023-04-21T13:08:57.088Z,23.91
2023-04-21T13:13:49.748Z,23.75
2023-04-21T13:18:42.465Z,23.90
2023-04-21T13:23:35.190Z,24.15
2023-04-21T13:28:27.948Z,24.16
2023-04-21T13:33:21.314Z,24.11
2023-04-21T13:38:14.084Z,24.02
2023-04-21T13:43:06.791Z,24.01
2023-04-21T13:47:59.684Z,23.89
2023-04-21T13:52:52.460Z,23.86
2023-04-21T13:57:45.262Z,23.76
2023-04-21T14:02:38.623Z,23.57
2023-04-21T14:07:32.211Z,23.33
2023-04-21T14:12:26.289Z,23.11
2023-04-21T14:17:19.111Z,23.17
2023-04-21T14:22:11.881Z,23.26
2023-04-21T14:27:05.228Z,23.17
2023-04-21T14:31:59.498Z,23.14
2023-04-21T14:36:52.683Z,23.02
2023-04-21T14:41:45.428Z,22.86
2023-04-21T14:46:38.744Z,22.70
2023-04-21T14:51:32.090Z,22.62
2023-04-21T14:56:24.912Z,22.46
2023-04-21T15:01:17.787Z,22.41
2023-04-21T15:06:10.964Z,22.43
2023-04-21T15:11:03.863Z,22.29
2023-04-21T15:15:56.859Z,22.05
2023-04-21T15:20:49.539Z,21.80
2023-04-21T15:25:42.725Z,21.64
2023-04-21T15:30:36.017Z,21.63
2023-04-21T15:35:28.822Z,21.56
2023-04-21T15:40:21.506Z,21.46
2023-04-21T15:45:14.300Z,21.23
2023-04-21T15:50:07.628Z,21.00
2023-04-21T15:55:00.994Z,20.68
2023-04-21T15:59:53.688Z,20.30
2023-04-21T16:04:46.603Z,19.97
2023-04-21T16:09:39.591Z,19.78
2023-04-21T16:14:46.543Z,19.59
2023-04-21T16:19:45.755Z,19.42
2023-04-21T16:24:38.770Z,19.28
2023-04-21T16:29:31.903Z,19.10
2023-04-21T16:34:24.594Z,18.99
2023-04-21T16:39:17.668Z,18.87
2023-04-21T16:44:10.653Z,18.77
2023-04-21T16:49:03.481Z,18.64
2023-04-21T16:53:56.818Z,18.47
2023-04-21T16:58:49.525Z,18.22
2023-04-21T17:03:42.365Z,17.94
2023-04-21T17:08:35.218Z,17.66
2023-04-21T17:13:27.928Z,17.35
2023-04-21T17:18:20.706Z,17.07
2023-04-21T17:23:13.376Z,16.73
2023-04-21T17:28:06.590Z,16.40
2023-04-21T17:33:14.887Z,16.07
2023-04-21T17:38:09.741Z,15.72
2023-04-21T17:43:02.496Z,15.44
2023-04-21T17:47:55.247Z,15.18
2023-04-21T17:52:47.988Z,14.93
2023-04-21T17:57:40.648Z,14.69
2023-04-21T18:02:33.478Z,14.45
2023-04-21T18:07:26.409Z,14.22
2023-04-21T18:12:19.899Z,14.02
2023-04-21T18:17:13.081Z,13.82
2023-04-21T18:22:06.881Z,13.62
2023-04-21T18:26:59.546Z,13.43
2023-04-21T18:31:52.368Z,13.23
2023-04-21T18:36:45.121Z,13.04
2023-04-21T18:41:39.305Z,12.84
2023-04-21T18:46:32.022Z,12.67
2023-04-21T18:51:25.012Z,12.48
2023-04-21T18:56:17.685Z,12.34
2023-04-21T19:01:10.478Z,12.19
2023-04-21T19:06:03.177Z,12.03
2023-04-21T19:10:56.442Z,11.88
2023-04-21T19:15:49.144Z,11.73
2023-04-21T19:20:41.861Z,11.58
2023-04-21T19:25:34.815Z,11.44
2023-04-21T19:30:27.521Z,11.26
2023-04-21T19:35:20.930Z,11.09
2023-04-21T19:40:13.777Z,10.95
2023-04-21T19:45:08.426Z,10.84
2023-04-21T19:50:01.117Z,10.72
2023-04-21T19:54:53.973Z,10.60
2023-04-21T19:59:46.797Z,10.49
2023-04-21T20:04:39.650Z,10.38
2023-04-21T20:09:32.450Z,10.26
2023-04-21T20:14:25.158Z,10.13
2023-04-21T20:19:18.422Z,10.07
2023-04-21T20:24:12.311Z,9.96
2023-04-21T20:29:05.165Z,9.85
2023-04-21T20:33:57.954Z,9.77
2023-04-21T20:38:50.734Z,9.71
2023-04-21T20:43:44.023Z,9.61
2023-04-21T20:48:36.729Z,9.57
2023-04-21T20:53:29.430Z,9.48
2023-04-21T20:58:22.172Z,9.45
2023-04-21T21:03:15.133Z,9.40
2023-04-21T21:08:08.759Z,9.32
2023-04-21T21:13:01.495Z,9.23
2023-04-21T21:17:54.223Z,9.17
2023-04-21T21:22:47.142Z,9.14
2023-04-21T21:27:39.850Z,9.08
2023-04-21T21:32:32.904Z,9.02
2023-04-21T21:37:25.650Z,8.91
2023-04-21T21:42:20.034Z,8.84
2023-04-21T21:47:12.741Z,8.80
2023-04-21T21:52:06.312Z,8.72
2023-04-21T21:56:59.470Z,8.61
2023-04-21T22:01:52.465Z,8.52
2023-04-21T22:06:45.486Z,8.48
2023-04-21T22:11:38.230Z,8.42
2023-04-21T22:16:31.159Z,8.32
2023-04-21T22:21:26.130Z,8.23
2023-04-21T22:26:18.817Z,8.15
2023-04-21T22:31:11.647Z,8.06
2023-04-21T22:36:04.429Z,7.97
2023-04-21T22:40:57.258Z,7.86
2023-04-21T22:45:49.963Z,7.80
2023-04-21T22:50:44.371Z,7.69
2023-04-21T22:55:37.308Z,7.60
2023-04-21T23:00:30.125Z,7.50
2023-04-21T23:05:22.885Z,7.40
2023-04-21T23:10:15.550Z,7.27
2023-04-21T23:15:08.500Z,7.18
2023-04-21T23:20:06.760Z,7.09
2023-04-21T23:24:59.569Z,7.03
2023-04-21T23:29:54.888Z,6.98
2023-04-21T23:34:47.585Z,6.89
2023-04-21T23:39:40.543Z,6.77
2023-04-21T23:44:33.735Z,6.63
2023-04-21T23:49:26.401Z,6.57
2023-04-21T23:54:19.133Z,6.49
2023-04-21T23:59:12.180Z,6.44
